Terminal Aerodrome Forecast
Issued by NWS

Current Version | Previous Version | Graphics & Text | Print | Product List | Glossary On
Versions: 1 2 3 4 5 6 7 8 9 10 11 12 13 14 15 16 17 18 19
000
FTUS41 KILN 151631 AAB
TAFLUK
TAF AMD
KLUK 151631Z 1517/1612 25012G18KT P6SM OVC035
      TEMPO 1519/1522 BKN025
     FM160000 24007KT P6SM FEW050 SCT100=

USA.gov is the U.S. government's official web portal to all federal, state and local government web resources and services.